• Join FlightAware (Why Join?)
  • Login
  • US Flag 
01:50PM EDT


 

Airport Tracker/Info


-or-


 

Live Flight TrackerFlight Track Log ✈ FDX1479 ✈ 02-Mar-2012 ✈ KMEM - KSHV

Flight Track Log - Related Links

Times and Time Zones

All times are in EST time to prevent confusion due to time zone crossing. See the FDX1479 flight status page for this flight to view local times or setup timezone preferences in your user account.

Time Position Orientation Groundspeed Altitude Reporting Facility
EST Latitude Longitude Course Direction KTS MPH feet Rate Location/Type
05:42AM 35.0264 -89.9869 185° South 135 155 1,400  Level FAA TRACON SMA TRACON (SMA)
05:43AM 34.9983 -89.9900 187° South 162 186 2,700 2,700 Climbing FAA TRACON SMA TRACON (SMA)
05:43AM 34.9553 -89.9961 225° Southwest 222 255 5,000 3,660 Climbing FAA TRACON SMA TRACON (SMA)
05:44AM 34.9267 -90.0306 228° Southwest 233 268 7,600 4,200 Climbing FAA TRACON SMA TRACON (SMA)
05:45AM 34.8953 -90.0736 228° Southwest 243 280 10,600 3,060 Climbing FAA TRACON SMA TRACON (SMA)
05:45AM 34.8597 -90.1219 227° Southwest 294 338 11,700 2,760 Climbing FAA TRACON SMA TRACON (SMA)
05:46AM 34.8164 -90.1786 227° Southwest 336 387 14,300 3,960 Climbing FAA TRACON SMA TRACON (SMA)
05:47AM 34.7714 -90.2383 233° Southwest 346 398 17,000 3,900 Climbing FAA TRACON SMA TRACON (SMA)
05:47AM 34.7314 -90.3028 234° Southwest 360 414 19,500 3,600 Climbing FAA TRACON SMA TRACON (SMA)
05:48AM 34.6908 -90.3700 233° Southwest 365 420 21,800 3,060 Climbing FAA TRACON SMA TRACON (SMA)
05:49AM 34.6533 -90.4303 233° Southwest 370 426 23,600 2,520 Climbing FAA TRACON SMA TRACON (SMA)
05:49AM 34.6075 -90.5033 233° Southwest 392 451 25,200 2,880 Climbing FAA TRACON SMA TRACON (SMA)
05:50AM 34.5619 -90.5767 233° Southwest 393 452 27,500 2,100 Climbing FAA TRACON SMA TRACON (SMA)
05:51AM 34.5219 -90.6406 233° Southwest 387 445 28,000 360 Climbing FAA TRACON SMA TRACON (SMA)
05:51AM 34.4781 -90.7117 233° Southwest 383 441 28,000  Level FAA TRACON SMA TRACON (SMA)
05:52AM 34.4586 -90.7431 233° Southwest 381 438 28,000  Level FAA TRACON SMA TRACON (SMA)
05:54AM 34.3467 -90.9206 232° Southwest 379 436 28,000  Level Memphis Center
05:55AM 34.2817 -91.0208 233° Southwest 384 442 28,000  Level Memphis Center
05:56AM 34.2122 -91.1308 233° Southwest 384 442 28,000  Level Memphis Center
05:57AM 34.1489 -91.2306 231° Southwest 389 448 28,000  Level Memphis Center
05:58AM 34.0833 -91.3278 232° Southwest 389 448 28,000  Level Memphis Center
05:59AM 34.0200 -91.4272 232° Southwest 383 441 28,000  Level Memphis Center
06:00AM 33.9564 -91.5267 232° Southwest 383 441 28,000  Level Memphis Center
06:01AM 33.8931 -91.6233 234° Southwest 383 441 28,000  Level Memphis Center
06:02AM 33.8336 -91.7225 231° Southwest 383 441 28,000  Level Memphis Center
06:03AM 33.7258 -91.8819 231° Southwest 361 415 28,000  Level Fort Worth Center
06:04AM 33.6633 -91.9758 235° Southwest 361 415 28,000  Level Fort Worth Center
06:05AM 33.6050 -92.0742 231° Southwest 361 415 28,000  Level Fort Worth Center
06:06AM 33.5400 -92.1703 230° Southwest 361 415 28,000  Level Fort Worth Center
06:07AM 33.4769 -92.2611 233° Southwest 361 415 28,000  Level Fort Worth Center
06:08AM 33.4164 -92.3569 231° Southwest 361 415 28,000  Level Fort Worth Center
06:09AM 33.3533 -92.4500 232° Southwest 361 415 28,000  Level Fort Worth Center
06:10AM 33.2903 -92.5478 231° Southwest 361 415 28,000  Level Fort Worth Center
06:11AM 33.2292 -92.6381 230° Southwest 361 415 28,000 -600 Level Fort Worth Center
06:12AM 33.1636 -92.7308 232° Southwest 361 415 26,900 -1,800 Descending Fort Worth Center
06:13AM 33.1064 -92.8183 231° Southwest 356 410 24,400 -2,580 Descending Fort Worth Center
06:14AM 33.0469 -92.9056 231° Southwest 350 403 21,800 -2,700 Descending Fort Worth Center
06:15AM 32.9875 -92.9928 233° Southwest 350 403 19,100 -2,700 Descending Fort Worth Center
06:16AM 32.9300 -93.0822 230° Southwest 350 403 16,400 -2,760 Descending Fort Worth Center
06:17AM 32.8703 -93.1667 232° Southwest 345 397 13,600 -1,800 Descending Fort Worth Center
06:18AM 32.8147 -93.2508 238° Southwest 340 391 12,900 -1,200 Descending Fort Worth Center
06:19AM 32.7675 -93.3397 242° Southwest 329 379 11,200 -1,500 Descending Fort Worth Center
06:20AM 32.7286 -93.4278 241° Southwest 321 369 9,900 -1,740 Descending Fort Worth Center
06:21AM 32.6914 -93.5083 249° West 277 319 7,800 -1,800 Descending Fort Worth Center
06:22AM 32.6667 -93.5836 250° West 251 289 6,400 -1,200 Descending Fort Worth Center
06:23AM 32.6439 -93.6586 252° West 246 283 5,400 -1,080 Descending Fort Worth Center
06:24AM 32.6231 -93.7333 256° West 246 283 4,300 -1,200 Descending Fort Worth Center
06:25AM 32.6083 -93.8056 259° West 241 277 3,100 -960 Descending Fort Worth Center
06:26AM 32.5978 -93.8675 235° Southwest 215 247 2,400 -600 Descending Fort Worth Center
06:27AM 32.5739 -93.9078 176° South 164 189 2,000 -240 Descending Fort Worth Center
06:28AM 32.5339 -93.9044 148° Southeast 135 155 2,000 -420 Level Fort Worth Center
06:30AM 32.4872 -93.8694 142° Southeast 151 174 1,100 -720 Descending Fort Worth Center
06:31AM 32.4592 -93.8433 142° Southeast 133 153 400 -720 Descending Fort Worth Center